createdAt,value
2023-01-18T00:01:50.457Z,25.80
2023-01-18T00:03:50.484Z,25.81
2023-01-18T00:05:50.426Z,25.80
2023-01-18T00:07:50.479Z,25.83
2023-01-18T00:09:50.347Z,25.80
2023-01-18T00:11:50.471Z,25.80
2023-01-18T00:13:50.452Z,25.80
2023-01-18T00:15:50.488Z,25.80
2023-01-18T00:17:50.433Z,25.80
2023-01-18T00:19:50.429Z,25.81
2023-01-18T00:21:50.504Z,25.80
2023-01-18T00:23:50.449Z,25.81
2023-01-18T00:25:50.403Z,25.80
2023-01-18T00:27:50.469Z,25.83
2023-01-18T00:29:50.464Z,25.80
2023-01-18T00:31:50.485Z,25.82
2023-01-18T00:33:50.462Z,25.86
2023-01-18T00:35:50.470Z,25.79
2023-01-18T00:37:50.422Z,25.80
2023-01-18T00:39:50.490Z,25.88
2023-01-18T00:41:50.491Z,25.81
2023-01-18T00:43:50.412Z,25.80
2023-01-18T00:45:50.484Z,25.80
2023-01-18T00:47:50.443Z,25.80
2023-01-18T00:49:50.398Z,25.83
2023-01-18T00:51:50.494Z,25.80
2023-01-18T00:53:50.473Z,25.81
2023-01-18T00:55:50.460Z,25.82
2023-01-18T00:57:50.499Z,25.80
2023-01-18T00:59:50.416Z,25.81
2023-01-18T01:01:50.725Z,25.80
2023-01-18T01:03:50.440Z,25.82
2023-01-18T01:05:50.401Z,25.85
2023-01-18T01:07:50.582Z,25.85
2023-01-18T01:09:50.551Z,25.81
2023-01-18T01:11:50.406Z,25.80
2023-01-18T01:13:50.498Z,25.83
2023-01-18T01:15:50.468Z,25.80
2023-01-18T01:17:50.433Z,25.83
2023-01-18T01:19:50.425Z,25.80
2023-01-18T01:21:50.434Z,25.87
2023-01-18T01:23:50.443Z,25.80
2023-01-18T01:25:50.534Z,25.75
2023-01-18T01:27:50.543Z,25.91
2023-01-18T01:29:50.476Z,25.80
2023-01-18T01:31:50.512Z,25.77
2023-01-18T01:33:50.558Z,25.81
2023-01-18T01:35:50.569Z,25.79
2023-01-18T01:37:50.520Z,25.81
2023-01-18T01:39:50.446Z,25.78
2023-01-18T01:41:50.524Z,25.84
2023-01-18T01:43:50.491Z,25.79
2023-01-18T01:45:50.541Z,25.81
2023-01-18T01:47:50.535Z,25.88
2023-01-18T01:49:50.466Z,25.86
2023-01-18T01:51:50.584Z,25.84
2023-01-18T01:53:50.562Z,25.78
2023-01-18T01:55:50.535Z,25.83
2023-01-18T01:57:50.540Z,25.80
2023-01-18T01:59:50.613Z,25.80
2023-01-18T02:01:50.685Z,25.83
2023-01-18T02:03:50.571Z,25.80
2023-01-18T02:05:50.606Z,25.79
2023-01-18T02:07:50.552Z,25.76
2023-01-18T02:09:50.569Z,25.78
2023-01-18T02:11:50.604Z,25.80
2023-01-18T02:13:50.637Z,25.80
2023-01-18T02:15:50.602Z,25.82
2023-01-18T02:17:50.586Z,25.80
2023-01-18T02:19:50.614Z,25.84
2023-01-18T02:21:50.600Z,25.80
2023-01-18T02:23:50.590Z,25.80
2023-01-18T02:25:50.543Z,25.85
2023-01-18T02:27:50.714Z,25.80
2023-01-18T02:29:50.501Z,25.81
2023-01-18T02:31:53.597Z,25.78
2023-01-18T02:33:50.572Z,25.80
2023-01-18T02:35:50.612Z,25.80
2023-01-18T02:37:50.550Z,25.79
2023-01-18T02:39:50.442Z,25.80
2023-01-18T02:41:50.645Z,25.80
2023-01-18T02:43:50.637Z,25.79
2023-01-18T02:45:50.609Z,25.80
2023-01-18T02:47:50.602Z,25.80
2023-01-18T02:49:50.650Z,25.79
2023-01-18T02:51:50.613Z,25.80
2023-01-18T02:53:50.627Z,25.80
2023-01-18T02:55:50.629Z,25.80
2023-01-18T02:57:50.576Z,25.80
2023-01-18T02:59:50.640Z,25.80
2023-01-18T03:01:50.637Z,25.81
2023-01-18T03:03:50.639Z,25.84
2023-01-18T03:05:50.688Z,25.88
2023-01-18T03:07:50.675Z,25.82
2023-01-18T03:09:50.554Z,25.81
2023-01-18T03:11:50.695Z,25.80
2023-01-18T03:13:50.685Z,25.78
2023-01-18T03:15:50.720Z,25.79
2023-01-18T03:17:50.642Z,25.80
2023-01-18T03:19:50.693Z,25.89
2023-01-18T03:21:50.687Z,25.82
2023-01-18T03:23:50.569Z,25.80
2023-01-18T03:25:50.691Z,25.77
2023-01-18T03:27:50.682Z,25.86
2023-01-18T03:29:50.576Z,25.81
2023-01-18T03:31:50.712Z,25.88
2023-01-18T03:33:50.753Z,25.79
2023-01-18T03:35:50.663Z,25.89
2023-01-18T03:37:50.666Z,25.43
2023-01-18T03:39:50.639Z,25.88
2023-01-18T03:41:50.548Z,25.87
2023-01-18T03:43:50.704Z,25.80
2023-01-18T03:45:50.733Z,25.79
2023-01-18T03:47:50.654Z,25.90
2023-01-18T03:49:50.593Z,25.81
2023-01-18T03:51:50.706Z,25.80
2023-01-18T03:53:50.600Z,25.80
2023-01-18T03:55:50.666Z,25.83
2023-01-18T03:57:50.705Z,25.78
2023-01-18T03:59:50.600Z,25.80
2023-01-18T04:01:50.843Z,25.79
2023-01-18T04:03:50.662Z,25.80
2023-01-18T04:05:50.655Z,25.81
2023-01-18T04:07:50.600Z,25.82
2023-01-18T04:09:50.698Z,25.80
2023-01-18T04:11:50.607Z,25.80
2023-01-18T04:13:50.635Z,25.83
2023-01-18T04:15:50.774Z,25.75
2023-01-18T04:17:50.711Z,25.77
2023-01-18T04:19:50.695Z,25.89
2023-01-18T04:21:50.599Z,25.80
2023-01-18T04:23:50.692Z,25.82
2023-01-18T04:25:50.732Z,25.80
2023-01-18T04:27:50.720Z,25.80
2023-01-18T04:29:50.752Z,25.86
2023-01-18T04:31:50.763Z,25.81
2023-01-18T04:33:50.734Z,25.78
2023-01-18T04:35:50.723Z,25.80
2023-01-18T04:37:50.722Z,25.80
2023-01-18T04:39:50.716Z,25.80
2023-01-18T04:41:50.662Z,25.81
2023-01-18T04:43:50.619Z,25.80
2023-01-18T04:45:50.763Z,25.80
2023-01-18T04:47:50.653Z,25.79
2023-01-18T04:49:50.742Z,25.80
2023-01-18T04:51:50.728Z,25.80
2023-01-18T04:53:50.696Z,25.80
2023-01-18T04:55:50.668Z,25.81
2023-01-18T04:57:50.772Z,25.79
2023-01-18T04:59:50.674Z,25.89
2023-01-18T05:01:50.752Z,25.80
2023-01-18T05:03:50.784Z,25.79
2023-01-18T05:05:50.789Z,25.80
2023-01-18T05:07:50.726Z,25.76
2023-01-18T05:09:50.753Z,25.83
2023-01-18T05:11:50.723Z,25.76
2023-01-18T05:13:50.758Z,25.80
2023-01-18T05:15:50.664Z,25.80
2023-01-18T05:17:50.752Z,25.81
2023-01-18T05:19:50.688Z,25.79
2023-01-18T05:21:50.728Z,25.75
2023-01-18T05:23:50.791Z,25.80
2023-01-18T05:25:50.649Z,25.83
2023-01-18T05:27:50.769Z,25.84
2023-01-18T05:29:50.776Z,25.84
2023-01-18T05:31:50.811Z,25.79
2023-01-18T05:33:50.826Z,25.82
2023-01-18T05:35:50.730Z,25.79
2023-01-18T05:37:50.684Z,25.81
2023-01-18T05:39:50.723Z,25.80
2023-01-18T05:41:50.707Z,25.90
2023-01-18T05:43:50.811Z,25.83
2023-01-18T05:45:50.853Z,25.85
2023-01-18T05:47:50.813Z,25.90
2023-01-18T05:49:50.684Z,25.80
2023-01-18T05:51:50.797Z,25.53
2023-01-18T05:53:50.770Z,25.76
2023-01-18T05:55:50.878Z,25.88
2023-01-18T05:57:50.856Z,25.76
2023-01-18T05:59:50.818Z,25.80
2023-01-18T06:01:50.802Z,25.79
2023-01-18T06:03:50.743Z,25.84
2023-01-18T06:05:50.742Z,25.80
2023-01-18T06:07:50.791Z,25.81
2023-01-18T06:09:50.793Z,25.78
2023-01-18T06:11:50.838Z,25.80
2023-01-18T06:13:50.787Z,25.80
2023-01-18T06:15:50.969Z,25.80
2023-01-18T06:17:50.748Z,25.86
2023-01-18T06:19:50.867Z,25.81
2023-01-18T06:21:50.806Z,25.80
2023-01-18T06:23:50.744Z,25.80
2023-01-18T06:25:50.927Z,25.75
2023-01-18T06:27:50.847Z,25.86
2023-01-18T06:29:50.810Z,25.84
2023-01-18T06:31:50.905Z,25.81
2023-01-18T06:33:50.872Z,25.86
2023-01-18T06:35:50.915Z,25.80
2023-01-18T06:37:50.813Z,25.89
2023-01-18T06:39:50.832Z,25.80
2023-01-18T06:41:50.749Z,25.80
2023-01-18T06:43:50.800Z,25.80
2023-01-18T06:45:52.347Z,25.80
2023-01-18T06:47:50.836Z,25.82
2023-01-18T06:49:50.821Z,25.80
2023-01-18T06:51:50.903Z,25.84
2023-01-18T06:53:50.726Z,25.83
2023-01-18T06:55:50.893Z,25.38
2023-01-18T06:57:50.786Z,25.10
2023-01-18T06:59:50.891Z,25.09
2023-01-18T07:01:50.932Z,24.90
2023-01-18T07:03:50.931Z,24.90
2023-01-18T07:05:50.874Z,24.92
2023-01-18T07:07:50.905Z,24.79
2023-01-18T07:09:50.879Z,24.79
2023-01-18T07:11:51.006Z,24.66
2023-01-18T07:13:50.925Z,24.68
2023-01-18T07:15:50.973Z,24.60
2023-01-18T07:17:51.119Z,24.56
2023-01-18T07:19:50.961Z,24.53
2023-01-18T07:21:50.941Z,24.52
2023-01-18T07:23:50.836Z,24.50
2023-01-18T07:25:50.916Z,24.43
2023-01-18T07:27:50.874Z,24.36
2023-01-18T07:29:50.879Z,24.29
2023-01-18T07:31:51.012Z,24.25
2023-01-18T07:33:50.959Z,24.23
2023-01-18T07:35:50.926Z,24.20
2023-01-18T07:37:50.926Z,24.10
2023-01-18T07:39:50.927Z,24.09
2023-01-18T07:41:50.917Z,24.04
2023-01-18T07:43:50.917Z,23.96
2023-01-18T07:45:50.909Z,23.97
2023-01-18T07:47:50.935Z,23.99
2023-01-18T07:49:50.931Z,23.91
2023-01-18T07:51:50.932Z,23.87
2023-01-18T07:53:50.938Z,23.84
2023-01-18T07:55:50.906Z,23.84
2023-01-18T07:57:50.985Z,23.86
2023-01-18T07:59:50.980Z,23.81
2023-01-18T08:01:51.038Z,23.73
2023-01-18T08:03:51.039Z,23.76
2023-01-18T08:05:50.976Z,23.66
2023-01-18T08:07:50.993Z,23.75
2023-01-18T08:09:50.937Z,23.42
2023-01-18T08:11:50.941Z,23.63
2023-01-18T08:13:50.875Z,23.66
2023-01-18T08:15:51.088Z,23.66
2023-01-18T08:17:50.970Z,23.57
2023-01-18T08:19:50.932Z,23.59
2023-01-18T08:21:50.898Z,23.59
2023-01-18T08:23:51.122Z,23.53
2023-01-18T08:25:50.861Z,23.50
2023-01-18T08:27:50.930Z,23.52
2023-01-18T08:29:50.957Z,23.50
2023-01-18T08:31:51.069Z,23.47
2023-01-18T08:33:51.051Z,23.50
2023-01-18T08:35:51.003Z,23.50
2023-01-18T08:37:51.013Z,23.49
2023-01-18T08:39:50.964Z,23.54
2023-01-18T08:41:50.882Z,23.51
2023-01-18T08:43:51.246Z,23.50
2023-01-18T08:45:51.026Z,23.48
2023-01-18T08:47:50.951Z,23.48
2023-01-18T08:49:50.909Z,23.48
2023-01-18T08:51:51.024Z,23.50
2023-01-18T08:53:51.035Z,23.49
2023-01-18T08:55:50.964Z,23.51
2023-01-18T08:57:50.989Z,23.52
2023-01-18T08:59:50.924Z,23.51
2023-01-18T09:01:51.011Z,23.49
2023-01-18T09:03:50.972Z,23.55
2023-01-18T09:05:51.003Z,23.50
2023-01-18T09:07:51.047Z,23.53
2023-01-18T09:09:51.078Z,23.58
2023-01-18T09:11:51.056Z,23.59
2023-01-18T09:13:59.915Z,23.55
2023-01-18T09:15:51.101Z,23.61
2023-01-18T09:17:51.067Z,23.59
2023-01-18T09:19:51.037Z,23.53
2023-01-18T09:21:51.116Z,23.55
2023-01-18T09:23:51.176Z,23.56
2023-01-18T09:25:50.972Z,23.53
2023-01-18T09:27:51.042Z,23.57
2023-01-18T09:29:51.009Z,23.65
2023-01-18T09:31:51.102Z,23.59
2023-01-18T09:33:53.993Z,23.62
2023-01-18T09:35:51.060Z,23.58
2023-01-18T09:37:50.938Z,23.59
2023-01-18T09:39:52.514Z,23.58
2023-01-18T09:41:51.091Z,23.54
2023-01-18T09:43:51.103Z,23.59
2023-01-18T09:45:51.054Z,23.55
2023-01-18T09:47:51.140Z,23.57
2023-01-18T09:49:50.933Z,23.59
2023-01-18T09:51:51.081Z,23.57
2023-01-18T09:53:51.067Z,23.53
2023-01-18T09:55:51.101Z,24.10
2023-01-18T09:57:50.926Z,23.73
2023-01-18T09:59:50.980Z,23.56
2023-01-18T10:01:51.941Z,23.56
2023-01-18T10:03:51.076Z,23.57
2023-01-18T10:05:50.984Z,23.57
2023-01-18T10:07:51.021Z,23.59
2023-01-18T10:09:51.086Z,23.56
2023-01-18T10:11:51.056Z,23.57
2023-01-18T10:13:51.104Z,23.66
2023-01-18T10:15:51.068Z,23.53
2023-01-18T10:17:51.031Z,23.55
2023-01-18T10:19:51.051Z,23.61
2023-01-18T10:21:51.142Z,23.62
2023-01-18T10:23:51.124Z,23.65
2023-01-18T10:25:51.014Z,23.59
2023-01-18T10:27:51.116Z,23.63
2023-01-18T10:29:51.107Z,23.57
2023-01-18T10:31:51.122Z,23.58
2023-01-18T10:33:51.015Z,23.69
2023-01-18T10:35:51.079Z,23.66
2023-01-18T10:37:51.035Z,23.62
2023-01-18T10:39:51.143Z,23.65
2023-01-18T10:41:51.225Z,23.64
2023-01-18T10:43:51.115Z,23.63
2023-01-18T10:45:51.193Z,23.64
2023-01-18T10:47:51.244Z,23.57
2023-01-18T10:49:51.182Z,23.58
2023-01-18T10:51:51.160Z,23.63
2023-01-18T10:53:51.097Z,23.63
2023-01-18T10:55:51.113Z,23.47
2023-01-18T10:57:51.103Z,23.67
2023-01-18T10:59:51.109Z,23.62
2023-01-18T11:01:51.369Z,23.65
2023-01-18T11:03:51.193Z,23.62
2023-01-18T11:05:51.195Z,23.59
2023-01-18T11:07:51.165Z,23.68
2023-01-18T11:09:51.137Z,23.59
2023-01-18T11:11:51.020Z,23.59
2023-01-18T11:13:51.114Z,23.61
2023-01-18T11:15:51.190Z,23.29
2023-01-18T11:17:51.160Z,23.68
2023-01-18T11:19:51.119Z,23.57
2023-01-18T11:21:51.940Z,23.63
2023-01-18T11:23:51.070Z,23.67
2023-01-18T11:25:51.074Z,23.62
2023-01-18T11:27:51.085Z,23.68
2023-01-18T11:29:51.193Z,23.73
2023-01-18T11:31:51.219Z,23.66
2023-01-18T11:33:51.156Z,23.65
2023-01-18T11:35:51.162Z,23.62
2023-01-18T11:37:51.285Z,23.66
2023-01-18T11:39:51.217Z,23.65
2023-01-18T11:41:51.187Z,23.62
2023-01-18T11:43:51.166Z,23.65
2023-01-18T11:45:51.234Z,23.66
2023-01-18T11:47:51.066Z,23.66
2023-01-18T11:49:51.122Z,23.66
2023-01-18T11:51:51.173Z,23.67
2023-01-18T11:53:51.192Z,23.67
2023-01-18T11:55:51.123Z,23.69
2023-01-18T11:57:51.154Z,23.68
2023-01-18T11:59:51.078Z,23.73
2023-01-18T12:01:51.282Z,23.73
2023-01-18T12:03:51.119Z,23.65
2023-01-18T12:05:51.198Z,23.62
2023-01-18T12:07:51.246Z,23.66
2023-01-18T12:09:51.185Z,23.71
2023-01-18T12:11:51.109Z,23.66
2023-01-18T12:13:51.299Z,23.65
2023-01-18T12:15:51.266Z,23.62
2023-01-18T12:17:56.453Z,23.63
2023-01-18T12:19:51.176Z,23.66
2023-01-18T12:21:51.103Z,23.64
2023-01-18T12:23:51.172Z,23.66
2023-01-18T12:26:00.294Z,23.64
2023-01-18T12:27:51.194Z,23.67
2023-01-18T12:29:51.180Z,23.66
2023-01-18T12:31:51.237Z,23.72
2023-01-18T12:33:51.253Z,23.70
2023-01-18T12:35:51.245Z,23.76
2023-01-18T12:37:51.174Z,23.68
2023-01-18T12:39:51.149Z,23.77
2023-01-18T12:41:51.215Z,23.72
2023-01-18T12:43:51.288Z,23.75
2023-01-18T12:45:51.371Z,23.78
2023-01-18T12:47:51.168Z,23.73
2023-01-18T12:49:51.269Z,23.79
2023-01-18T12:51:51.245Z,23.73
2023-01-18T12:53:51.290Z,23.80
2023-01-18T12:55:51.337Z,23.77
2023-01-18T12:57:51.255Z,23.87
2023-01-18T12:59:51.288Z,23.81
2023-01-18T13:01:51.234Z,23.78
2023-01-18T13:03:51.240Z,23.81
2023-01-18T13:05:51.287Z,23.83
2023-01-18T13:07:51.244Z,23.79
2023-01-18T13:09:51.247Z,23.81
2023-01-18T13:11:51.310Z,23.81
2023-01-18T13:13:51.352Z,23.81
2023-01-18T13:15:51.432Z,23.80
2023-01-18T13:17:51.268Z,23.77
2023-01-18T13:19:51.318Z,23.81
2023-01-18T13:21:51.312Z,23.77
2023-01-18T13:23:53.783Z,23.80
2023-01-18T13:25:51.224Z,23.73
2023-01-18T13:27:51.304Z,23.67
2023-01-18T13:29:51.273Z,23.72
2023-01-18T13:31:51.181Z,23.72
2023-01-18T13:33:51.290Z,23.70
2023-01-18T13:35:51.259Z,23.65
2023-01-18T13:37:51.304Z,23.66
2023-01-18T13:39:51.200Z,23.67
2023-01-18T13:41:51.333Z,23.66
2023-01-18T13:43:51.274Z,23.73
2023-01-18T13:45:51.344Z,23.70
2023-01-18T13:47:51.202Z,23.73
2023-01-18T13:49:51.286Z,23.71
2023-01-18T13:51:51.418Z,23.72
2023-01-18T13:53:51.340Z,23.69
2023-01-18T13:55:51.314Z,23.69
2023-01-18T13:57:51.304Z,23.68
2023-01-18T13:59:51.307Z,23.73
2023-01-18T14:01:51.344Z,23.73
2023-01-18T14:03:51.402Z,23.74
2023-01-18T14:05:51.317Z,23.69
2023-01-18T14:07:51.347Z,23.71
2023-01-18T14:09:51.344Z,23.72
2023-01-18T14:11:51.383Z,23.63
2023-01-18T14:13:51.331Z,23.62
2023-01-18T14:15:51.359Z,23.68
2023-01-18T14:17:58.634Z,23.69
2023-01-18T14:19:51.364Z,23.65
2023-01-18T14:21:51.262Z,23.65
2023-01-18T14:23:51.302Z,23.66
2023-01-18T14:25:51.396Z,23.72
2023-01-18T14:27:51.287Z,23.68
2023-01-18T14:29:51.316Z,23.65
2023-01-18T14:31:51.287Z,23.67
2023-01-18T14:33:51.439Z,23.65
2023-01-18T14:35:51.323Z,23.70
2023-01-18T14:37:51.272Z,23.72
2023-01-18T14:39:51.377Z,23.68
2023-01-18T14:41:51.374Z,23.73
2023-01-18T14:43:51.395Z,23.65
2023-01-18T14:45:51.362Z,23.65
2023-01-18T14:47:51.309Z,23.63
2023-01-18T14:49:51.401Z,23.57
2023-01-18T14:51:51.323Z,23.63
2023-01-18T14:53:51.372Z,23.65
2023-01-18T14:55:51.444Z,23.65
2023-01-18T14:57:51.408Z,23.63
2023-01-18T14:59:51.393Z,23.64
2023-01-18T15:01:51.527Z,23.57
2023-01-18T15:03:51.358Z,23.59
2023-01-18T15:05:51.348Z,23.70
2023-01-18T15:07:51.403Z,23.70
2023-01-18T15:09:51.399Z,23.57
2023-01-18T15:11:51.354Z,23.55
2023-01-18T15:13:51.413Z,23.68
2023-01-18T15:15:51.471Z,23.69
2023-01-18T15:17:51.484Z,23.59
2023-01-18T15:19:51.412Z,23.62
2023-01-18T15:21:51.341Z,23.64
2023-01-18T15:23:51.450Z,23.63
2023-01-18T15:25:51.422Z,23.59
2023-01-18T15:27:51.363Z,23.59
2023-01-18T15:29:51.427Z,23.65
2023-01-18T15:31:51.449Z,23.62
2023-01-18T15:33:51.456Z,23.59
2023-01-18T15:35:51.402Z,23.62
2023-01-18T15:37:51.445Z,23.57
2023-01-18T15:39:51.434Z,23.59
2023-01-18T15:41:51.367Z,23.60
2023-01-18T15:43:51.453Z,23.66
2023-01-18T15:45:51.554Z,23.61
2023-01-18T15:47:51.506Z,23.59
2023-01-18T15:49:51.354Z,23.63
2023-01-18T15:51:51.441Z,23.59
2023-01-18T15:53:51.418Z,23.65
2023-01-18T15:55:51.397Z,23.58
2023-01-18T15:57:52.735Z,23.59
2023-01-18T15:59:51.419Z,23.70
2023-01-18T16:01:51.603Z,23.65
2023-01-18T16:03:51.457Z,23.57
2023-01-18T16:05:51.415Z,23.57
2023-01-18T16:07:55.318Z,23.61
2023-01-18T16:09:51.439Z,23.65
2023-01-18T16:11:51.551Z,23.57
2023-01-18T16:13:51.537Z,23.59
2023-01-18T16:15:51.464Z,23.62
2023-01-18T16:17:51.504Z,23.57
2023-01-18T16:19:51.405Z,23.58
2023-01-18T16:21:51.474Z,23.63
2023-01-18T16:23:51.472Z,23.54
2023-01-18T16:25:51.470Z,27.16
2023-01-18T16:27:51.514Z,27.36
2023-01-18T16:29:51.434Z,27.31
2023-01-18T16:31:51.467Z,27.41
2023-01-18T16:33:51.407Z,27.41
2023-01-18T16:35:51.465Z,27.49
2023-01-18T16:37:51.468Z,27.42
2023-01-18T16:39:51.500Z,26.08
2023-01-18T16:41:51.453Z,25.82
2023-01-18T16:43:51.535Z,25.79
2023-01-18T16:45:51.480Z,25.80
2023-01-18T16:47:51.507Z,25.80
2023-01-18T16:49:51.427Z,25.86
2023-01-18T16:51:51.520Z,25.80
2023-01-18T16:53:51.407Z,25.80
2023-01-18T16:55:51.508Z,25.79
2023-01-18T16:57:51.888Z,25.83
2023-01-18T16:59:51.619Z,25.80
2023-01-18T17:01:51.796Z,25.88
2023-01-18T17:03:51.772Z,25.83
2023-01-18T17:05:51.527Z,25.85
2023-01-18T17:07:51.428Z,25.80
2023-01-18T17:09:53.251Z,25.82
2023-01-18T17:11:51.659Z,25.77
2023-01-18T17:13:51.556Z,25.79
2023-01-18T17:15:51.508Z,25.80
2023-01-18T17:17:51.585Z,25.80
2023-01-18T17:19:51.525Z,25.81
2023-01-18T17:21:51.565Z,25.80
2023-01-18T17:23:51.593Z,25.80
2023-01-18T17:25:51.655Z,25.81
2023-01-18T17:27:51.382Z,25.81
2023-01-18T17:29:51.481Z,25.80
2023-01-18T17:31:52.548Z,25.80
2023-01-18T17:33:51.527Z,25.88
2023-01-18T17:35:51.543Z,25.65
2023-01-18T17:37:57.487Z,25.61
2023-01-18T17:40:10.796Z,25.56
2023-01-18T17:41:51.598Z,25.65
2023-01-18T17:43:51.611Z,25.58
2023-01-18T17:46:01.264Z,25.84
2023-01-18T17:47:51.524Z,25.80
2023-01-18T17:49:51.551Z,25.80
2023-01-18T17:51:51.519Z,25.81
2023-01-18T17:53:51.572Z,25.80
2023-01-18T17:55:51.930Z,25.80
2023-01-18T17:57:53.677Z,25.81
2023-01-18T17:59:51.571Z,25.82
2023-01-18T18:01:51.790Z,25.80
2023-01-18T18:03:51.576Z,25.85
2023-01-18T18:05:51.578Z,25.80
2023-01-18T18:07:51.601Z,25.85
2023-01-18T18:09:51.543Z,25.77
2023-01-18T18:11:51.519Z,25.86
2023-01-18T18:13:51.565Z,25.83
2023-01-18T18:15:51.683Z,25.80
2023-01-18T18:17:51.507Z,25.79
2023-01-18T18:19:51.584Z,25.85
2023-01-18T18:21:51.612Z,25.80
2023-01-18T18:23:51.554Z,25.80
2023-01-18T18:25:51.693Z,25.83
2023-01-18T18:27:51.610Z,25.80
2023-01-18T18:29:51.503Z,25.80
2023-01-18T18:31:51.639Z,25.80
2023-01-18T18:33:51.621Z,25.80
2023-01-18T18:35:51.537Z,25.80
2023-01-18T18:37:51.640Z,25.80
2023-01-18T18:39:51.632Z,25.80
2023-01-18T18:41:51.611Z,25.83
2023-01-18T18:43:51.631Z,25.78
2023-01-18T18:45:51.643Z,25.76
2023-01-18T18:47:51.633Z,25.77
2023-01-18T18:49:51.616Z,25.82
2023-01-18T18:51:51.654Z,25.85
2023-01-18T18:53:51.601Z,25.80
2023-01-18T18:55:51.584Z,25.79
2023-01-18T18:57:51.642Z,25.80
2023-01-18T18:59:51.627Z,25.81
2023-01-18T19:01:51.780Z,25.80
2023-01-18T19:03:51.618Z,25.79
2023-01-18T19:05:51.639Z,25.80
2023-01-18T19:07:52.105Z,25.76
2023-01-18T19:09:51.587Z,25.81
2023-01-18T19:11:55.444Z,25.79
2023-01-18T19:13:51.564Z,25.75
2023-01-18T19:15:51.777Z,25.77
2023-01-18T19:17:51.651Z,25.79
2023-01-18T19:19:51.532Z,25.75
2023-01-18T19:21:51.698Z,25.75
2023-01-18T19:23:51.679Z,25.80
2023-01-18T19:25:51.651Z,25.83
2023-01-18T19:27:51.707Z,25.80
2023-01-18T19:29:51.660Z,25.83
2023-01-18T19:31:51.584Z,25.77
2023-01-18T19:33:51.651Z,25.79
2023-01-18T19:35:51.725Z,25.71
2023-01-18T19:37:51.713Z,25.77
2023-01-18T19:39:51.713Z,25.80
2023-01-18T19:41:51.670Z,25.74
2023-01-18T19:43:51.629Z,25.77
2023-01-18T19:45:51.619Z,25.80
2023-01-18T19:47:51.616Z,25.78
2023-01-18T19:49:51.714Z,25.79
2023-01-18T19:51:51.705Z,25.76
2023-01-18T19:53:51.648Z,25.80
2023-01-18T19:55:59.675Z,25.75
2023-01-18T19:57:51.642Z,25.80
2023-01-18T19:59:51.584Z,25.83
2023-01-18T20:01:51.854Z,25.77
2023-01-18T20:03:51.679Z,25.80
2023-01-18T20:05:51.731Z,25.78
2023-01-18T20:07:51.627Z,25.79
2023-01-18T20:09:51.625Z,25.77
2023-01-18T20:11:51.608Z,25.77
2023-01-18T20:13:51.637Z,25.81
2023-01-18T20:15:51.773Z,25.80
2023-01-18T20:17:51.701Z,25.79
2023-01-18T20:19:51.746Z,25.80
2023-01-18T20:21:51.740Z,25.74
2023-01-18T20:23:51.731Z,25.77
2023-01-18T20:25:51.752Z,25.77
2023-01-18T20:27:51.772Z,25.78
2023-01-18T20:29:51.700Z,25.79
2023-01-18T20:31:52.536Z,25.81
2023-01-18T20:33:51.724Z,25.79
2023-01-18T20:35:51.745Z,25.80
2023-01-18T20:37:51.731Z,25.75
2023-01-18T20:39:51.748Z,25.80
2023-01-18T20:41:51.688Z,25.77
2023-01-18T20:43:51.752Z,25.77
2023-01-18T20:45:51.795Z,25.65
2023-01-18T20:47:51.708Z,25.63
2023-01-18T20:49:51.743Z,25.80
2023-01-18T20:51:51.786Z,25.74
2023-01-18T20:53:51.725Z,25.84
2023-01-18T20:55:51.700Z,25.72
2023-01-18T20:57:51.652Z,25.75
2023-01-18T20:59:51.714Z,25.74
2023-01-18T21:01:51.850Z,25.83
2023-01-18T21:03:51.751Z,25.83
2023-01-18T21:05:51.787Z,25.78
2023-01-18T21:07:51.670Z,25.79
2023-01-18T21:09:51.777Z,25.75
2023-01-18T21:11:51.812Z,25.79
2023-01-18T21:13:51.785Z,25.77
2023-01-18T21:15:51.788Z,25.79
2023-01-18T21:17:51.793Z,25.83
2023-01-18T21:19:51.840Z,25.80
2023-01-18T21:21:51.835Z,25.79
2023-01-18T21:23:51.776Z,25.76
2023-01-18T21:25:51.829Z,25.79
2023-01-18T21:27:51.695Z,25.74
2023-01-18T21:29:51.713Z,25.79
2023-01-18T21:31:51.915Z,25.83
2023-01-18T21:33:51.804Z,25.79
2023-01-18T21:35:51.786Z,25.80
2023-01-18T21:37:51.751Z,25.78
2023-01-18T21:39:51.825Z,25.81
2023-01-18T21:41:52.017Z,25.79
2023-01-18T21:43:51.805Z,25.77
2023-01-18T21:45:51.911Z,25.77
2023-01-18T21:47:51.734Z,25.80
2023-01-18T21:50:16.543Z,25.80
2023-01-18T21:51:51.850Z,25.79
2023-01-18T21:53:51.803Z,25.76
2023-01-18T21:55:51.803Z,25.80
2023-01-18T21:57:51.859Z,25.75
2023-01-18T21:59:51.798Z,25.75
2023-01-18T22:01:51.998Z,25.79
2023-01-18T22:03:51.801Z,25.80
2023-01-18T22:05:51.713Z,25.80
2023-01-18T22:07:51.876Z,25.75
2023-01-18T22:10:03.583Z,25.81
2023-01-18T22:11:51.799Z,25.75
2023-01-18T22:13:52.154Z,25.64
2023-01-18T22:15:51.851Z,25.77
2023-01-18T22:17:51.862Z,25.75
2023-01-18T22:19:51.856Z,25.65
2023-01-18T22:21:51.915Z,25.83
2023-01-18T22:23:51.914Z,25.79
2023-01-18T22:25:51.904Z,25.78
2023-01-18T22:27:51.891Z,25.81
2023-01-18T22:29:51.802Z,25.72
2023-01-18T22:31:51.878Z,25.75
2023-01-18T22:33:51.869Z,25.75
2023-01-18T22:35:51.907Z,25.81
2023-01-18T22:37:51.891Z,25.79
2023-01-18T22:39:51.843Z,25.83
2023-01-18T22:41:51.858Z,25.79
2023-01-18T22:43:51.882Z,25.80
2023-01-18T22:45:51.962Z,25.75
2023-01-18T22:47:51.787Z,25.78
2023-01-18T22:49:51.883Z,25.80
2023-01-18T22:51:51.789Z,25.86
2023-01-18T22:53:51.902Z,25.74
2023-01-18T22:55:51.887Z,25.79
2023-01-18T22:57:51.875Z,25.77
2023-01-18T22:59:51.864Z,25.78
2023-01-18T23:01:51.875Z,25.81
2023-01-18T23:03:51.925Z,25.83
2023-01-18T23:05:51.864Z,25.76
2023-01-18T23:07:51.919Z,25.79
2023-01-18T23:09:51.913Z,25.75
2023-01-18T23:11:51.936Z,25.80
2023-01-18T23:13:51.877Z,25.79
2023-01-18T23:15:51.982Z,25.74
2023-01-18T23:17:51.834Z,25.75
2023-01-18T23:19:51.921Z,25.75
2023-01-18T23:21:51.908Z,25.83
2023-01-18T23:23:51.967Z,25.78
2023-01-18T23:25:51.830Z,25.75
2023-01-18T23:27:51.959Z,25.80
2023-01-18T23:29:51.946Z,25.77
2023-01-18T23:31:51.975Z,25.77
2023-01-18T23:33:51.922Z,25.75
2023-01-18T23:35:51.850Z,25.79
2023-01-18T23:37:51.898Z,25.75
2023-01-18T23:39:51.840Z,25.75
2023-01-18T23:41:51.953Z,25.82
2023-01-18T23:43:52.000Z,25.78
2023-01-18T23:45:51.951Z,25.79
2023-01-18T23:47:51.933Z,25.80
2023-01-18T23:49:51.952Z,25.79
2023-01-18T23:51:51.870Z,25.80
2023-01-18T23:53:51.939Z,25.75
2023-01-18T23:55:51.945Z,25.80
2023-01-18T23:57:51.927Z,25.80
2023-01-18T23:59:51.940Z,25.80
